Time;durP1;ratioP1;P1;durP2;ratioP2;P2;SDS_P1;SDS_P2;PMS_P1;PMS_P2;Temp;Humidity;BMP_temperature;BMP_pressure;BME280_temperature;BME280_humidity;BME280_pressure;Samples;Min_cycle;Max_cycle;Signal;HPM_P1;HPM_P2
2023/11/11 00:02:37;;;;;;;6.55;2.13;;;5.00;99.90;;;;;;6245687;23;20028;-86
2023/11/11 00:05:25;;;;;;;7.80;2.35;;;4.90;99.90;;;;;;6246136;23;20031;-86
2023/11/11 00:08:12;;;;;;;4.93;2.10;;;4.90;99.90;;;;;;6243926;23;20121;-86
2023/11/11 00:11:02;;;;;;;5.82;2.10;;;4.90;99.90;;;;;;6225000;23;20024;-86
2023/11/11 00:13:51;;;;;;;3.17;2.00;;;4.90;99.90;;;;;;6245516;23;20035;-86
2023/11/11 00:16:39;;;;;;;3.78;1.80;;;4.80;99.90;;;;;;6246492;23;20619;-87
2023/11/11 00:19:27;;;;;;;2.15;1.42;;;4.90;99.90;;;;;;6224501;23;20031;-85
2023/11/11 00:22:14;;;;;;;4.55;1.67;;;4.80;99.90;;;;;;6244340;23;20024;-83
2023/11/11 00:25:02;;;;;;;6.10;1.55;;;4.80;99.90;;;;;;6245182;23;20099;-84
2023/11/11 00:27:49;;;;;;;3.05;1.80;;;4.80;99.90;;;;;;6224796;23;20369;-86
2023/11/11 00:30:37;;;;;;;2.50;1.80;;;4.70;99.90;;;;;;6243879;23;20107;-86
2023/11/11 00:33:30;;;;;;;6.53;1.85;;;4.70;99.90;;;;;;6225331;23;20028;-84
2023/11/11 00:36:19;;;;;;;5.47;2.17;;;4.80;99.90;;;;;;6228080;23;20032;-82
2023/11/11 00:39:06;;;;;;;6.13;2.30;;;4.70;99.90;;;;;;6250177;23;20031;-85
2023/11/11 00:41:56;;;;;;;1.90;1.80;;;4.70;99.90;;;;;;6246969;23;20021;-85
2023/11/11 00:44:44;;;;;;;3.35;1.98;;;4.70;99.90;;;;;;6243938;23;20020;-85
2023/11/11 00:47:31;;;;;;;3.45;2.28;;;4.70;99.90;;;;;;6245006;23;20021;-84
2023/11/11 00:50:19;;;;;;;3.65;2.40;;;4.70;99.90;;;;;;6244285;23;20059;-85
2023/11/11 00:53:09;;;;;;;3.50;1.55;;;4.70;99.90;;;;;;6243008;23;20028;-86
2023/11/11 00:56:03;;;;;;;2.35;1.70;;;4.80;99.90;;;;;;6222550;23;20020;-85
2023/11/11 00:58:51;;;;;;;2.97;1.80;;;4.80;99.90;;;;;;6245031;23;20028;-85
2023/11/11 01:01:41;;;;;;;3.03;2.13;;;4.80;99.90;;;;;;6243221;23;20030;-86
2023/11/11 01:04:29;;;;;;;2.10;1.70;;;4.80;99.90;;;;;;6242655;23;20347;-85
2023/11/11 01:07:19;;;;;;;2.28;1.92;;;4.90;99.90;;;;;;6245468;23;20102;-86
2023/11/11 01:10:08;;;;;;;2.85;1.65;;;5.10;99.90;;;;;;6244973;23;20035;-85
2023/11/11 01:12:55;;;;;;;2.08;1.98;;;5.20;99.90;;;;;;6245353;23;20024;-84
2023/11/11 01:15:45;;;;;;;3.33;1.73;;;5.20;99.90;;;;;;6246712;23;20402;-86
2023/11/11 01:18:35;;;;;;;1.23;1.13;;;5.30;99.90;;;;;;6246624;23;20117;-84
2023/11/11 01:21:22;;;;;;;3.13;1.10;;;5.30;99.90;;;;;;6244515;23;20024;-86
2023/11/11 01:24:10;;;;;;;1.58;1.17;;;5.40;99.90;;;;;;6244173;23;20099;-85
2023/11/11 01:26:57;;;;;;;1.25;1.00;;;5.40;99.90;;;;;;6244154;23;20099;-85
2023/11/11 01:29:44;;;;;;;2.38;1.33;;;5.40;99.90;;;;;;6246357;23;20052;-85
2023/11/11 01:32:32;;;;;;;1.20;1.08;;;5.40;99.90;;;;;;6243404;23;20028;-86
2023/11/11 01:35:22;;;;;;;1.55;0.90;;;5.40;99.90;;;;;;6244362;23;20024;-86
2023/11/11 01:38:12;;;;;;;2.60;0.80;;;5.40;99.90;;;;;;6244941;23;20028;-86
2023/11/11 01:41:04;;;;;;;0.90;0.90;;;5.40;99.90;;;;;;6242943;23;20423;-85
2023/11/11 01:43:53;;;;;;;1.05;1.00;;;5.40;99.90;;;;;;6223205;23;20035;-86
2023/11/11 01:46:41;;;;;;;1.30;0.90;;;5.30;99.90;;;;;;6246895;22;20024;-87
2023/11/11 01:49:31;;;;;;;2.25;1.15;;;5.40;99.90;;;;;;6243290;23;20024;-82
2023/11/11 01:52:22;;;;;;;0.98;0.98;;;5.40;99.90;;;;;;6244447;23;20043;-84
2023/11/11 01:55:10;;;;;;;1.08;0.98;;;5.40;92.80;;;;;;6244652;23;20039;-85
2023/11/11 01:57:58;;;;;;;2.47;0.90;;;5.40;95.50;;;;;;6244519;23;20024;-86
2023/11/11 02:00:51;;;;;;;1.05;1.05;;;5.40;37.80;;;;;;6245234;23;20604;-86
2023/11/11 02:03:38;;;;;;;0.90;0.90;;;5.50;1.40;;;;;;6244607;23;20282;-85
2023/11/11 02:06:28;;;;;;;1.15;1.02;;;5.50;1.00;;;;;;6224880;23;20028;-82
2023/11/11 02:09:22;;;;;;;1.10;0.90;;;5.50;1.00;;;;;;6247224;23;20020;-85
2023/11/11 02:12:10;;;;;;;1.35;1.08;;;5.50;1.00;;;;;;6250972;23;20034;-82
2023/11/11 02:14:57;;;;;;;3.17;1.20;;;5.50;1.00;;;;;;6242885;23;20028;-85
2023/11/11 02:17:47;;;;;;;0.80;0.80;;;5.50;1.00;;;;;;6244719;23;20035;-84
2023/11/11 02:20:34;;;;;;;1.17;0.93;;;5.50;1.00;;;;;;6244002;23;20031;-85
2023/11/11 02:23:27;;;;;;;1.25;0.80;;;5.40;1.00;;;;;;6244786;23;20058;-83
2023/11/11 02:26:17;;;;;;;0.95;0.95;;;5.40;1.00;;;;;;6243542;23;20067;-84
2023/11/11 02:29:04;;;;;;;0.90;0.90;;;5.40;1.00;;;;;;6243460;23;20024;-85
2023/11/11 02:31:51;;;;;;;0.90;0.90;;;5.40;1.00;;;;;;6245707;23;20034;-84
2023/11/11 02:34:41;;;;;;;1.75;1.10;;;5.40;1.00;;;;;;6244172;23;20028;-84
2023/11/11 02:37:30;;;;;;;0.98;0.98;;;5.40;1.00;;;;;;6222000;23;20024;-86
2023/11/11 02:40:17;;;;;;;1.30;0.90;;;5.30;1.00;;;;;;6220248;23;20600;-84
2023/11/11 02:43:05;;;;;;;1.00;0.90;;;5.30;42.30;;;;;;6243407;23;20386;-79
2023/11/11 02:45:56;;;;;;;1.63;0.80;;;5.30;30.70;;;;;;6245163;23;20035;-83
2023/11/11 02:48:43;;;;;;;1.10;0.80;;;5.40;1.00;;;;;;6246138;23;20095;-80
2023/11/11 02:51:30;;;;;;;0.80;0.80;;;5.40;1.00;;;;;;6242370;23;20028;-85
2023/11/11 02:54:17;;;;;;;1.30;0.80;;;5.40;1.00;;;;;;6243604;23;20133;-83
2023/11/11 02:57:10;;;;;;;0.77;0.77;;;5.40;1.00;;;;;;6244971;23;20113;-86
2023/11/11 02:59:59;;;;;;;3.35;0.95;;;5.40;1.00;;;;;;6245911;23;20046;-86
2023/11/11 03:02:49;;;;;;;1.52;1.00;;;5.50;1.00;;;;;;6243568;23;20052;-86
2023/11/11 03:05:38;;;;;;;0.75;0.70;;;5.50;1.00;;;;;;6243161;23;20020;-86
2023/11/11 03:08:26;;;;;;;0.82;0.82;;;5.60;1.00;;;;;;6242515;23;20024;-86
2023/11/11 03:11:13;;;;;;;0.90;0.90;;;5.50;1.00;;;;;;6242719;23;20295;-86
2023/11/11 03:14:01;;;;;;;1.20;1.00;;;5.50;99.90;;;;;;6243088;23;20028;-86
2023/11/11 03:16:48;;;;;;;2.80;0.95;;;5.50;1.00;;;;;;6243287;23;20034;-85
2023/11/11 03:19:35;;;;;;;4.70;1.00;;;5.50;1.00;;;;;;6242349;23;20024;-86
2023/11/11 03:22:23;;;;;;;3.50;1.00;;;5.60;99.90;;;;;;6243522;23;20024;-84
2023/11/11 03:25:11;;;;;;;1.10;0.98;;;5.60;1.00;;;;;;6244158;23;20315;-86
2023/11/11 03:27:58;;;;;;;1.45;1.13;;;5.60;99.90;;;;;;6245530;23;20135;-85
2023/11/11 03:30:46;;;;;;;2.33;0.95;;;5.70;99.90;;;;;;6244893;23;20028;-83
2023/11/11 03:33:36;;;;;;;1.80;1.02;;;5.70;99.90;;;;;;6246781;23;20028;-80
2023/11/11 03:36:23;;;;;;;2.75;1.00;;;5.70;1.00;;;;;;6246392;23;20078;-86
2023/11/11 03:39:11;;;;;;;0.90;0.90;;;5.70;1.00;;;;;;6246161;23;20031;-85
2023/11/11 03:41:58;;;;;;;1.17;0.90;;;5.70;1.00;;;;;;6245818;23;20020;-86
2023/11/11 03:44:46;;;;;;;2.30;1.42;;;5.70;1.00;;;;;;6244473;23;20020;-87
2023/11/11 03:47:33;;;;;;;3.35;1.45;;;5.60;99.90;;;;;;6244302;23;20028;-85
2023/11/11 03:50:21;;;;;;;1.98;1.30;;;5.50;99.90;;;;;;6243560;23;20032;-83
2023/11/11 03:53:08;;;;;;;1.45;1.10;;;5.40;1.00;;;;;;6246212;23;20020;-87
2023/11/11 03:55:55;;;;;;;2.50;1.35;;;5.30;1.00;;;;;;6244230;23;20027;-85
2023/11/11 03:58:45;;;;;;;1.65;1.42;;;5.20;27.20;;;;;;6247133;23;20422;-87
2023/11/11 04:01:38;;;;;;;2.28;1.50;;;5.20;46.70;;;;;;6244029;23;20020;-87
2023/11/11 04:04:25;;;;;;;3.47;1.60;;;5.10;86.30;;;;;;6224403;23;20333;-86
2023/11/11 04:07:13;;;;;;;3.20;2.17;;;5.10;94.20;;;;;;6244033;23;20110;-86
2023/11/11 04:10:03;;;;;;;2.53;1.90;;;5.10;87.80;;;;;;6247710;23;20031;-81
2023/11/11 04:12:51;;;;;;;3.33;1.60;;;5.10;92.70;;;;;;6225577;23;20032;-86
2023/11/11 04:15:38;;;;;;;3.28;1.90;;;5.10;98.20;;;;;;6245585;23;20268;-86
2023/11/11 04:18:28;;;;;;;1.88;1.58;;;5.10;94.90;;;;;;6245952;23;20024;-81
2023/11/11 04:21:16;;;;;;;3.45;1.90;;;5.10;95.50;;;;;;6246332;23;20203;-86
2023/11/11 04:24:06;;;;;;;2.47;2.28;;;5.10;99.90;;;;;;6227081;23;20442;-85
2023/11/11 04:26:54;;;;;;;3.05;2.17;;;5.10;99.90;;;;;;6246670;23;20099;-86
2023/11/11 04:29:41;;;;;;;3.75;2.17;;;5.00;99.90;;;;;;6247636;23;20020;-86
2023/11/11 04:32:28;;;;;;;2.67;2.08;;;5.00;99.90;;;;;;6243862;23;20035;-85
2023/11/11 04:35:16;;;;;;;2.85;1.98;;;5.00;99.90;;;;;;6244573;23;20032;-85
2023/11/11 04:38:08;;;;;;;4.35;2.35;;;5.00;99.90;;;;;;6245364;23;20028;-84
2023/11/11 04:40:58;;;;;;;3.67;2.20;;;5.00;90.90;;;;;;6244639;23;20107;-86
2023/11/11 04:43:46;;;;;;;3.15;2.45;;;5.00;95.50;;;;;;6224846;23;20240;-86
2023/11/11 04:46:36;;;;;;;2.50;2.22;;;5.00;99.20;;;;;;6249101;23;20084;-86
2023/11/11 04:49:24;;;;;;;3.75;2.22;;;5.00;80.70;;;;;;6247058;23;20275;-85
2023/11/11 04:52:14;;;;;;;3.50;1.90;;;5.00;96.80;;;;;;6250682;23;20142;-87
2023/11/11 04:55:03;;;;;;;4.90;2.28;;;5.00;95.20;;;;;;6232176;23;20039;-86
2023/11/11 04:57:50;;;;;;;6.40;2.22;;;5.00;94.70;;;;;;6254352;23;20107;-87
2023/11/11 05:00:38;;;;;;;2.30;2.15;;;5.00;96.70;;;;;;6256728;23;20028;-85
2023/11/11 05:03:26;;;;;;;3.65;2.47;;;5.00;99.90;;;;;;6255196;23;20027;-85
2023/11/11 05:06:15;;;;;;;4.43;2.45;;;5.00;99.90;;;;;;6237313;23;20019;-86
2023/11/11 05:09:04;;;;;;;3.25;2.47;;;5.00;99.90;;;;;;6241635;23;20020;-85
2023/11/11 05:11:51;;;;;;;3.75;2.38;;;5.00;99.90;;;;;;6264551;22;20024;-85
2023/11/11 05:14:41;;;;;;;4.43;2.95;;;4.90;99.90;;;;;;6238823;23;20079;-84
2023/11/11 05:17:30;;;;;;;3.78;3.05;;;4.90;99.90;;;;;;6261791;23;20035;-86
2023/11/11 05:20:21;;;;;;;4.28;3.17;;;4.90;99.90;;;;;;6261308;23;20342;-85
2023/11/11 05:23:10;;;;;;;5.35;3.80;;;4.90;99.90;;;;;;6263199;23;20024;-85
2023/11/11 05:25:58;;;;;;;7.53;3.30;;;4.90;99.90;;;;;;6258374;23;20020;-84
2023/11/11 05:28:45;;;;;;;4.30;3.33;;;4.90;99.90;;;;;;6238985;23;20024;-86
2023/11/11 05:31:33;;;;;;;6.15;3.20;;;4.90;99.90;;;;;;6260329;23;20407;-86
2023/11/11 05:34:22;;;;;;;7.05;4.00;;;4.80;99.90;;;;;;6252170;23;20044;-86
2023/11/11 05:37:12;;;;;;;5.90;3.70;;;4.80;99.90;;;;;;6250405;23;20028;-86
2023/11/11 05:40:02;;;;;;;4.43;3.25;;;4.80;99.90;;;;;;6243603;23;20302;-83
2023/11/11 05:42:50;;;;;;;6.32;3.90;;;4.80;99.90;;;;;;6246650;23;20396;-81
2023/11/11 05:45:37;;;;;;;4.60;3.88;;;4.80;99.90;;;;;;6223968;23;20048;-84
2023/11/11 05:48:24;;;;;;;4.95;3.47;;;4.80;99.90;;;;;;6246222;23;20095;-86
2023/11/11 05:51:12;;;;;;;7.25;3.65;;;4.80;99.90;;;;;;6243341;23;20028;-84
2023/11/11 05:54:01;;;;;;;4.03;3.40;;;4.70;99.90;;;;;;6224937;23;20040;-84
2023/11/11 05:56:48;;;;;;;6.32;3.50;;;4.80;99.90;;;;;;6243739;23;20115;-83
2023/11/11 05:59:35;;;;;;;6.03;3.22;;;4.70;99.90;;;;;;6221356;23;20028;-86
2023/11/11 06:02:23;;;;;;;6.15;3.15;;;4.70;99.90;;;;;;6243524;23;20020;-83
2023/11/11 06:05:10;;;;;;;7.70;4.60;;;4.70;99.90;;;;;;6244578;23;20741;-84
2023/11/11 06:07:57;;;;;;;17.52;8.35;;;4.70;99.90;;;;;;6242490;23;20429;-83
2023/11/11 06:10:48;;;;;;;10.15;4.95;;;4.60;99.90;;;;;;6222001;23;20024;-84
2023/11/11 06:13:35;;;;;;;7.50;4.72;;;4.50;99.90;;;;;;6248415;23;20024;-84
2023/11/11 06:16:22;;;;;;;4.20;3.08;;;4.50;99.90;;;;;;6252615;23;20024;-84
2023/11/11 06:19:10;;;;;;;4.10;3.10;;;4.50;99.90;;;;;;6243732;23;20051;-81
2023/11/11 06:22:04;;;;;;;4.07;3.22;;;4.40;99.90;;;;;;6245752;23;20034;-81
2023/11/11 06:24:51;;;;;;;6.53;3.00;;;4.50;99.90;;;;;;6247206;23;20020;-83
2023/11/11 06:27:40;;;;;;;3.88;2.70;;;4.50;99.90;;;;;;6242427;23;20016;-85
2023/11/11 06:30:27;;;;;;;4.13;2.78;;;4.40;99.90;;;;;;6244402;23;20090;-80
2023/11/11 06:33:16;;;;;;;3.42;2.10;;;4.40;99.90;;;;;;6245003;23;20714;-84
2023/11/11 06:36:07;;;;;;;1.83;1.55;;;4.40;99.90;;;;;;6246887;23;20578;-79
2023/11/11 06:38:54;;;;;;;2.22;1.80;;;4.40;99.90;;;;;;6243235;23;20039;-84
2023/11/11 06:41:41;;;;;;;1.80;1.70;;;4.40;99.90;;;;;;6243406;23;20020;-85
2023/11/11 06:44:29;;;;;;;2.33;1.60;;;4.30;99.90;;;;;;6220889;23;20102;-83
2023/11/11 06:47:16;;;;;;;2.40;1.58;;;4.30;99.90;;;;;;6241997;23;20024;-83
2023/11/11 06:50:07;;;;;;;5.15;1.90;;;4.20;99.90;;;;;;6244360;23;20476;-82
2023/11/11 06:52:54;;;;;;;2.15;1.55;;;4.20;99.90;;;;;;6243488;23;20024;-83
2023/11/11 06:55:46;;;;;;;3.55;2.00;;;4.30;99.90;;;;;;6241047;23;20079;-83
2023/11/11 06:58:33;;;;;;;3.85;2.20;;;4.30;99.90;;;;;;6242903;23;20042;-83
2023/11/11 07:01:23;;;;;;;3.38;2.15;;;4.30;99.90;;;;;;6221534;23;20035;-84
2023/11/11 07:04:10;;;;;;;3.90;2.13;;;4.30;99.90;;;;;;6243447;23;20035;-79
2023/11/11 07:07:01;;;;;;;4.05;2.42;;;4.30;99.90;;;;;;6221678;23;20024;-82
2023/11/11 07:09:52;;;;;;;3.78;2.38;;;4.30;99.90;;;;;;6245614;22;20024;-77
2023/11/11 07:12:41;;;;;;;6.13;2.60;;;4.30;99.90;;;;;;6245725;23;20058;-79
2023/11/11 07:15:28;;;;;;;4.28;2.83;;;4.30;99.90;;;;;;6244756;23;20445;-83
2023/11/11 07:18:16;;;;;;;5.53;2.92;;;4.40;94.70;;;;;;6245255;23;20033;-83
2023/11/11 07:21:04;;;;;;;6.35;3.05;;;4.40;96.00;;;;;;6225113;23;20031;-82
2023/11/11 07:23:52;;;;;;;4.50;3.00;;;4.40;99.90;;;;;;6248599;23;20111;-83
2023/11/11 07:26:42;;;;;;;6.00;3.63;;;4.40;99.90;;;;;;6243666;23;20030;-83
2023/11/11 07:29:29;;;;;;;5.63;3.33;;;4.40;99.90;;;;;;6224478;23;20031;-83
2023/11/11 07:32:17;;;;;;;9.18;3.40;;;4.40;99.90;;;;;;6245162;23;20105;-82
2023/11/11 07:35:10;;;;;;;4.40;3.03;;;4.50;80.30;;;;;;6245649;23;20038;-82
2023/11/11 07:38:00;;;;;;;4.75;2.72;;;4.50;48.10;;;;;;6248644;23;20028;-83
2023/11/11 07:40:52;;;;;;;8.82;2.97;;;4.60;13.10;;;;;;6245792;23;20574;-84
2023/11/11 07:43:40;;;;;;;32.38;5.57;;;4.60;3.50;;;;;;6224144;23;20121;-82
2023/11/11 07:46:32;;;;;;;14.95;4.13;;;4.60;1.00;;;;;;6245101;23;20422;-84
2023/11/11 07:49:19;;;;;;;20.80;3.88;;;4.70;1.00;;;;;;6247433;23;20358;-85
2023/11/11 07:52:06;;;;;;;26.33;4.93;;;4.70;1.00;;;;;;6247290;23;20020;-81
2023/11/11 07:54:58;;;;;;;12.73;4.20;;;4.80;1.00;;;;;;6245921;23;20034;-83
2023/11/11 07:57:46;;;;;;;7.38;3.10;;;4.80;1.00;;;;;;6244242;23;20028;-83
2023/11/11 08:00:36;;;;;;;5.75;2.97;;;4.80;1.00;;;;;;6244624;23;20088;-84
2023/11/11 08:03:27;;;;;;;8.32;3.55;;;4.80;1.00;;;;;;6246534;23;20024;-83
2023/11/11 08:06:15;;;;;;;7.85;3.42;;;4.80;1.00;;;;;;6225535;23;20146;-82
2023/11/11 08:09:03;;;;;;;5.90;3.25;;;4.90;1.00;;;;;;6247236;23;20035;-82
2023/11/11 08:11:50;;;;;;;5.72;3.10;;;4.90;99.90;;;;;;6222000;23;20059;-83
2023/11/11 08:14:40;;;;;;;4.68;2.75;;;5.00;99.90;;;;;;6243997;23;20062;-84
2023/11/11 08:17:27;;;;;;;3.92;2.75;;;5.20;99.90;;;;;;6245754;23;20478;-85
2023/11/11 08:20:16;;;;;;;5.80;2.70;;;5.20;99.90;;;;;;6221534;23;20059;-81
2023/11/11 08:23:03;;;;;;;6.78;2.88;;;5.10;99.90;;;;;;6243431;23;20030;-78
2023/11/11 08:25:50;;;;;;;5.07;3.08;;;5.10;99.90;;;;;;6245276;23;20022;-83
2023/11/11 08:28:38;;;;;;;5.20;3.10;;;5.10;99.90;;;;;;6243466;23;20024;-82
2023/11/11 08:31:25;;;;;;;4.28;2.88;;;5.00;99.90;;;;;;6242950;23;20028;-83
2023/11/11 08:34:13;;;;;;;5.55;3.03;;;5.00;99.90;;;;;;6246757;23;20570;-82
2023/11/11 08:37:04;;;;;;;3.78;2.50;;;5.00;99.90;;;;;;6247522;23;20028;-84
2023/11/11 08:39:51;;;;;;;3.83;2.30;;;5.10;84.70;;;;;;6247747;23;20024;-81
2023/11/11 08:42:42;;;;;;;2.95;2.40;;;5.00;99.90;;;;;;6230739;23;20024;-81
2023/11/11 08:45:29;;;;;;;4.78;2.50;;;4.90;1.00;;;;;;6249697;23;20389;-83
2023/11/11 08:48:16;;;;;;;5.35;2.50;;;4.90;1.00;;;;;;6248794;23;20102;-83
2023/11/11 08:51:06;;;;;;;2.78;2.50;;;4.90;1.00;;;;;;6246338;23;20024;-86
2023/11/11 08:53:54;;;;;;;3.92;2.53;;;5.10;99.90;;;;;;6248379;23;20023;-83
2023/11/11 08:56:42;;;;;;;4.07;2.42;;;5.10;99.90;;;;;;6247841;23;20655;-83
2023/11/11 08:59:34;;;;;;;2.70;2.50;;;5.10;99.90;;;;;;6228386;23;20024;-81
2023/11/11 09:02:21;;;;;;;3.83;2.38;;;5.10;99.90;;;;;;6251886;23;20255;-84
2023/11/11 09:05:09;;;;;;;4.97;2.83;;;5.10;99.90;;;;;;6246980;23;20319;-84
2023/11/11 09:07:59;;;;;;;2.75;2.45;;;5.10;99.90;;;;;;6252217;23;20024;-82
2023/11/11 09:10:51;;;;;;;4.55;2.88;;;5.00;99.90;;;;;;6249533;23;20024;-84
2023/11/11 09:13:39;;;;;;;5.93;3.45;;;4.90;99.90;;;;;;6250136;22;20032;-83
2023/11/11 09:16:28;;;;;;;8.63;3.42;;;4.90;1.00;;;;;;6230560;23;20024;-80
2023/11/11 09:19:16;;;;;;;5.55;3.05;;;4.90;1.00;;;;;;6230645;23;20020;-83
2023/11/11 09:22:07;;;;;;;4.40;2.50;;;5.00;1.00;;;;;;6250837;23;20133;-84
2023/11/11 09:25:01;;;;;;;3.30;2.63;;;5.10;99.90;;;;;;6235735;23;20024;-79
2023/11/11 09:27:48;;;;;;;3.85;2.90;;;5.30;1.00;;;;;;6254040;23;20034;-84
2023/11/11 09:30:35;;;;;;;5.10;3.00;;;5.30;99.90;;;;;;6249737;23;20020;-80
2023/11/11 09:33:23;;;;;;;3.20;2.42;;;5.30;99.90;;;;;;6247796;23;20105;-77
2023/11/11 09:36:11;;;;;;;4.28;2.47;;;5.60;1.00;;;;;;6253524;23;20024;-83
2023/11/11 09:38:58;;;;;;;3.47;2.15;;;5.80;99.90;;;;;;6250590;23;20430;-84
2023/11/11 09:41:46;;;;;;;5.18;2.70;;;5.80;68.70;;;;;;6252352;23;20203;-82
2023/11/11 09:44:34;;;;;;;3.97;2.72;;;5.80;99.90;;;;;;6249551;23;20024;-79
2023/11/11 09:47:27;;;;;;;5.53;2.85;;;5.70;1.00;;;;;;6249782;23;20031;-83
2023/11/11 09:50:18;;;;;;;5.47;3.00;;;5.50;99.90;;;;;;6250301;23;20032;-83
2023/11/11 09:53:06;;;;;;;9.10;3.70;;;5.50;99.90;;;;;;6226433;23;20038;-83
2023/11/11 09:55:55;;;;;;;3.75;3.00;;;5.50;99.90;;;;;;6224965;23;20028;-83
2023/11/11 09:58:45;;;;;;;3.42;2.65;;;5.70;99.90;;;;;;6242486;23;20024;-84
2023/11/11 10:01:40;;;;;;;3.88;3.05;;;6.00;99.90;;;;;;6246122;23;20055;-84
2023/11/11 10:04:30;;;;;;;3.72;2.45;;;6.80;1.00;;;;;;6244137;23;20323;-84
2023/11/11 10:07:21;;;;;;;3.10;1.83;;;8.50;1.00;;;;;;6244079;23;20392;-80
2023/11/11 10:10:09;;;;;;;2.35;1.70;;;9.20;1.00;;;;;;6222672;23;20027;-84
2023/11/11 10:12:57;;;;;;;5.85;1.83;;;9.00;99.90;;;;;;6226315;23;20113;-84
2023/11/11 10:15:47;;;;;;;5.13;2.05;;;8.40;48.20;;;;;;6226826;23;20707;-82
2023/11/11 10:18:35;;;;;;;4.82;1.90;;;7.90;12.50;;;;;;6248031;23;20027;-79
2023/11/11 10:21:22;;;;;;;3.35;1.80;;;7.50;1.00;;;;;;6248676;23;20024;-79
2023/11/11 10:24:10;;;;;;;3.45;1.83;;;7.30;1.00;;;;;;6227676;23;20024;-83
2023/11/11 10:26:57;;;;;;;4.45;1.70;;;7.10;1.00;;;;;;6245990;23;20104;-85
2023/11/11 10:29:47;;;;;;;7.10;1.98;;;7.00;1.00;;;;;;6247640;23;20024;-84
2023/11/11 10:32:41;;;;;;;2.72;1.80;;;6.70;1.00;;;;;;6246041;23;20035;-84
2023/11/11 10:35:30;;;;;;;3.83;1.70;;;6.40;99.90;;;;;;6246456;23;20046;-82
2023/11/11 10:38:18;;;;;;;3.00;1.90;;;5.90;99.90;;;;;;6245847;23;20366;-83
2023/11/11 10:41:06;;;;;;;5.68;2.20;;;5.90;99.90;;;;;;6221605;23;20058;-83
2023/11/11 10:43:54;;;;;;;4.47;2.95;;;6.00;99.90;;;;;;6243623;23;20077;-84
2023/11/11 10:46:42;;;;;;;4.68;2.25;;;6.20;99.90;;;;;;6248039;23;20020;-84
2023/11/11 10:49:32;;;;;;;2.30;2.10;;;6.50;94.60;;;;;;6244239;23;20047;-79
2023/11/11 10:52:23;;;;;;;5.65;2.28;;;6.90;1.00;;;;;;6246304;23;20035;-84
2023/11/11 10:55:11;;;;;;;2.63;1.98;;;7.10;99.90;;;;;;6221911;23;20035;-84
2023/11/11 10:58:00;;;;;;;4.07;1.75;;;7.70;99.90;;;;;;6224776;23;20039;-80
2023/11/11 11:00:49;;;;;;;3.15;1.77;;;7.70;1.00;;;;;;6245181;23;20537;-83
2023/11/11 11:03:37;;;;;;;2.22;1.70;;;7.70;1.00;;;;;;6245307;23;20471;-81
2023/11/11 11:06:33;;;;;;;3.72;1.70;;;7.80;99.90;;;;;;6226301;23;20092;-83
2023/11/11 11:09:50;;;;;;;2.60;1.58;;;7.60;99.90;;;;;;6245287;23;20024;-78
2023/11/11 11:12:50;;;;;;;3.80;2.03;;;7.30;99.90;;;;;;6245791;23;20086;-84
2023/11/11 11:15:44;;;;;;;3.30;1.92;;;8.30;99.90;;;;;;6246265;23;20103;-80
2023/11/11 11:18:31;;;;;;;3.30;1.92;;;8.70;99.90;;;;;;6251679;23;20359;-80
2023/11/11 11:21:22;;;;;;;3.15;1.80;;;8.70;5.10;;;;;;6234673;23;20102;-84
2023/11/11 11:24:11;;;;;;;5.13;1.50;;;9.10;1.00;;;;;;6249989;23;20107;-84
2023/11/11 11:26:58;;;;;;;5.60;2.20;;;9.80;1.00;;;;;;6223983;23;20020;-85
2023/11/11 11:29:48;;;;;;;2.95;1.70;;;9.50;1.00;;;;;;6242070;23;20024;-84
2023/11/11 11:32:37;;;;;;;2.17;1.50;;;8.80;1.00;;;;;;6244937;23;20118;-85
2023/11/11 11:35:27;;;;;;;2.58;1.65;;;8.50;1.00;;;;;;6244929;23;20113;-84
2023/11/11 11:38:24;;;;;;;3.00;1.70;;;8.20;1.00;;;;;;6245187;23;20353;-84
2023/11/11 11:41:12;;;;;;;2.20;1.77;;;7.90;1.00;;;;;;6245528;23;20027;-84
2023/11/11 11:44:00;;;;;;;2.78;1.42;;;7.60;1.00;;;;;;6245161;23;20425;-85
2023/11/11 11:46:50;;;;;;;2.97;1.85;;;7.40;1.00;;;;;;6243253;23;20046;-84
2023/11/11 11:49:39;;;;;;;2.47;1.58;;;7.70;99.90;;;;;;6248656;23;20498;-85
2023/11/11 11:52:27;;;;;;;3.88;1.80;;;8.40;99.90;;;;;;6244720;23;20024;-85
2023/11/11 11:55:14;;;;;;;2.92;1.65;;;8.80;99.90;;;;;;6245220;23;20426;-83
2023/11/11 11:58:04;;;;;;;3.50;1.70;;;10.20;99.90;;;;;;6248220;23;20074;-84
2023/11/11 12:00:52;;;;;;;1.27;1.10;;;11.30;99.90;;;;;;6246023;23;20055;-79
2023/11/11 12:03:43;;;;;;;2.85;1.15;;;11.40;99.90;;;;;;6247492;23;20439;-83
2023/11/11 12:06:35;;;;;;;2.03;1.27;;;12.10;99.90;;;;;;6248599;23;20044;-79
2023/11/11 12:09:26;;;;;;;8.35;3.17;;;12.40;99.90;;;;;;6246974;23;20080;-84
2023/11/11 12:12:13;;;;;;;4.50;1.88;;;12.30;99.90;;;;;;6246653;23;20732;-84
2023/11/11 12:15:10;;;;;;;11.88;3.90;;;12.10;99.90;;;;;;6246768;23;20117;-83
2023/11/11 12:18:13;;;;;;;3.78;1.85;;;12.30;99.90;;;;;;6246418;23;20398;-84
2023/11/11 12:21:01;;;;;;;3.92;1.75;;;11.70;99.90;;;;;;6225162;23;20382;-86
2023/11/11 12:23:49;;;;;;;2.70;1.15;;;12.00;99.90;;;;;;6224400;23;20052;-86
2023/11/11 12:26:37;;;;;;;3.13;1.23;;;12.50;99.90;;;;;;6246509;23;20114;-85
2023/11/11 12:29:25;;;;;;;1.75;1.13;;;12.50;99.90;;;;;;6248221;23;20035;-84
2023/11/11 12:32:13;;;;;;;1.58;1.25;;;12.80;99.90;;;;;;6246530;23;20469;-85
2023/11/11 12:35:01;;;;;;;3.88;1.20;;;13.60;99.90;;;;;;6225877;23;20028;-84
2023/11/11 12:37:51;;;;;;;2.30;0.93;;;14.10;99.90;;;;;;6246216;23;20103;-85
2023/11/11 12:40:38;;;;;;;4.20;1.50;;;13.50;99.90;;;;;;6246549;23;20028;-85
2023/11/11 12:43:29;;;;;;;2.45;1.17;;;13.40;99.90;;;;;;6246430;23;20024;-86
2023/11/11 12:46:21;;;;;;;3.03;1.40;;;12.80;99.90;;;;;;6245360;23;20066;-85
2023/11/11 12:49:14;;;;;;;4.18;1.42;;;12.40;99.90;;;;;;6247721;23;20047;-81
2023/11/11 12:52:13;;;;;;;5.80;1.98;;;12.70;99.90;;;;;;6247478;23;20082;-81
2023/11/11 12:55:03;;;;;;;1.58;1.40;;;13.50;99.90;;;;;;6244920;23;20319;-83
2023/11/11 12:57:53;;;;;;;4.22;1.73;;;13.30;99.90;;;;;;6245055;23;20103;-85
2023/11/11 13:00:55;;;;;;;3.45;1.80;;;13.60;99.90;;;;;;6245236;23;20051;-85
2023/11/11 13:03:42;;;;;;;2.95;1.10;;;13.70;99.90;;;;;;6244243;23;20401;-79
2023/11/11 13:06:34;;;;;;;7.13;1.60;;;13.50;99.90;;;;;;6245780;23;20032;-80
2023/11/11 13:09:26;;;;;;;1.77;1.20;;;13.00;99.90;;;;;;6245457;23;20024;-85
2023/11/11 13:12:14;;;;;;;1.60;1.20;;;12.90;99.90;;;;;;6245326;23;20398;-84
2023/11/11 13:15:02;;;;;;;2.58;1.10;;;12.80;99.90;;;;;;6221674;23;20037;-85
2023/11/11 13:17:50;;;;;;;3.15;1.50;;;12.70;99.90;;;;;;6245531;23;20028;-80
2023/11/11 13:20:37;;;;;;;2.92;1.40;;;12.40;99.90;;;;;;6244623;23;20028;-85
2023/11/11 13:23:29;;;;;;;5.28;1.90;;;12.20;99.90;;;;;;6243043;23;20306;-85
2023/11/11 13:26:18;;;;;;;1.92;1.38;;;12.10;99.90;;;;;;6222352;23;20035;-83
2023/11/11 13:29:08;;;;;;;3.28;1.25;;;11.90;99.90;;;;;;6244840;23;20024;-85
2023/11/11 13:31:57;;;;;;;2.92;1.65;;;11.40;99.90;;;;;;6243527;23;20043;-81
2023/11/11 13:34:47;;;;;;;3.60;1.63;;;11.20;99.90;;;;;;6244553;23;20024;-85
2023/11/11 13:37:36;;;;;;;4.30;1.75;;;10.90;99.90;;;;;;6245735;23;20028;-84
2023/11/11 13:40:31;;;;;;;6.15;1.70;;;11.10;99.90;;;;;;6245527;23;20035;-84
2023/11/11 13:43:22;;;;;;;3.55;1.60;;;11.20;99.90;;;;;;6243541;23;20021;-83
2023/11/11 13:46:10;;;;;;;4.53;2.00;;;11.60;99.90;;;;;;6224059;23;20150;-81
2023/11/11 13:48:59;;;;;;;2.30;1.50;;;11.80;99.90;;;;;;6245872;23;20024;-80
2023/11/11 13:51:48;;;;;;;3.53;1.88;;;11.90;99.90;;;;;;6222798;23;20034;-85
2023/11/11 13:54:35;;;;;;;5.05;1.88;;;11.40;99.90;;;;;;6244948;23;20350;-84
2023/11/11 13:57:22;;;;;;;3.28;1.83;;;11.50;99.90;;;;;;6248326;23;20032;-79
2023/11/11 14:00:20;;;;;;;8.45;2.38;;;12.10;99.90;;;;;;6248313;23;20082;-84
2023/11/11 14:03:10;;;;;;;4.45;1.65;;;12.10;99.90;;;;;;6227990;23;20414;-84
2023/11/11 14:05:58;;;;;;;2.40;1.45;;;11.90;99.90;;;;;;6221075;23;20127;-83
2023/11/11 14:08:48;;;;;;;3.25;1.80;;;11.60;99.90;;;;;;6220330;23;20026;-84
2023/11/11 14:11:42;;;;;;;3.22;1.85;;;11.60;99.90;;;;;;6244717;23;20222;-86
2023/11/11 14:14:29;;;;;;;4.07;1.98;;;11.80;99.90;;;;;;6244879;23;20518;-84
2023/11/11 14:17:17;;;;;;;3.85;2.13;;;11.10;99.90;;;;;;6243029;23;20028;-83
2023/11/11 14:20:06;;;;;;;6.00;1.90;;;10.90;99.90;;;;;;6243159;23;20024;-83
2023/11/11 14:22:53;;;;;;;2.88;2.08;;;10.50;99.90;;;;;;6244568;23;20363;-84
2023/11/11 14:25:48;;;;;;;4.15;1.73;;;9.40;99.90;;;;;;6243419;23;20020;-82
2023/11/11 14:28:37;;;;;;;4.20;1.70;;;8.40;99.90;;;;;;6244753;23;20028;-83
2023/11/11 14:31:27;;;;;;;4.18;2.05;;;7.90;99.90;;;;;;6242934;23;20031;-83
2023/11/11 14:34:15;;;;;;;3.90;2.15;;;7.60;99.90;;;;;;6244178;23;20082;-83
2023/11/11 14:37:03;;;;;;;5.82;1.88;;;7.50;99.90;;;;;;6245247;23;20440;-79
2023/11/11 14:39:52;;;;;;;2.38;1.80;;;7.30;99.90;;;;;;6245393;23;20027;-83
2023/11/11 14:42:39;;;;;;;2.70;1.70;;;7.20;99.90;;;;;;6244613;23;20098;-84
2023/11/11 14:45:27;;;;;;;2.28;1.80;;;7.10;99.90;;;;;;6243813;23;20020;-77
2023/11/11 14:48:15;;;;;;;3.80;2.15;;;7.10;99.90;;;;;;6245047;23;20020;-82
2023/11/11 14:51:03;;;;;;;7.35;3.30;;;7.00;99.90;;;;;;6222274;23;20334;-81
2023/11/11 14:53:50;;;;;;;3.80;2.38;;;7.10;99.90;;;;;;6243350;23;20147;-81